Time;durP1;ratioP1;P1;durP2;ratioP2;P2;SDS_P1;SDS_P2;PMS_P1;PMS_P2;Temp;Humidity;BMP_temperature;BMP_pressure;BME280_temperature;BME280_humidity;BME280_pressure;Samples;Min_cycle;Max_cycle;Signal;HPM_P1;HPM_P2
2023/09/12 00:01:08;;;;;;;665.33;605.28;;;19.90;99.90;;;;;;4938479;28;20502;-92
2023/09/12 00:03:34;;;;;;;697.50;632.33;;;19.90;99.90;;;;;;4953693;28;20490;-93
2023/09/12 00:06:06;;;;;;;724.25;655.28;;;19.90;99.90;;;;;;5005269;28;20074;-94
2023/09/12 00:09:19;;;;;;;680.73;617.67;;;19.90;99.90;;;;;;5048949;28;20041;-95
2023/09/12 06:22:06;;;;;;;849.15;760.92;;;18.20;99.90;;;;;;5009411;23;20143;-85
2023/09/12 06:24:32;;;;;;;819.30;733.90;;;18.30;99.90;;;;;;4895149;29;20483;-84
2023/09/12 06:26:58;;;;;;;794.40;711.30;;;18.30;99.90;;;;;;4894656;29;20075;-86
2023/09/12 06:29:23;;;;;;;878.00;781.70;;;18.40;99.90;;;;;;4905902;29;20051;-85
2023/09/12 06:31:49;;;;;;;882.25;786.35;;;18.40;99.90;;;;;;4911198;29;20044;-85
2023/09/12 06:34:26;;;;;;;870.53;773.88;;;18.40;99.90;;;;;;4910584;29;20492;-85
2023/09/12 06:40:07;;;;;;;822.25;736.85;;;18.50;99.90;;;;;;4918681;23;20107;-92
2023/09/12 06:42:33;;;;;;;812.47;729.15;;;18.50;99.90;;;;;;4880149;29;20067;-88
2023/09/12 06:48:53;;;;;;;811.83;727.47;;;18.60;99.90;;;;;;4934380;29;20065;-88
2023/09/12 06:51:54;;;;;;;768.42;692.55;;;18.60;99.90;;;;;;4915322;23;20063;-89
2023/09/12 06:57:37;;;;;;;907.58;792.72;;;18.50;99.90;;;;;;4953437;23;20068;-94
2023/09/12 07:00:18;;;;;;;942.53;812.28;;;18.70;99.90;;;;;;4910199;29;20055;-94
2023/09/12 07:03:13;;;;;;;825.22;737.35;;;18.50;99.90;;;;;;4914758;29;20123;-94
2023/09/12 07:06:15;;;;;;;847.30;756.42;;;18.60;99.90;;;;;;4850094;29;20140;-95
2023/09/12 07:09:31;;;;;;;836.10;745.97;;;18.60;99.90;;;;;;4909962;29;20453;-95
2023/09/12 07:12:19;;;;;;;873.65;777.25;;;18.60;99.90;;;;;;4897299;29;20044;-94
2023/09/12 07:15:36;;;;;;;761.05;686.22;;;18.60;99.90;;;;;;4879084;29;20428;-94
2023/09/12 07:21:23;;;;;;;892.25;793.78;;;18.90;99.90;;;;;;4786839;29;20384;-93
2023/09/12 07:24:38;;;;;;;845.60;755.17;;;18.80;99.90;;;;;;4846738;29;20052;-94
2023/09/12 07:27:25;;;;;;;897.92;794.17;;;19.00;99.90;;;;;;4831485;29;20065;-94
2023/09/12 07:29:57;;;;;;;866.58;772.38;;;19.10;99.90;;;;;;4877721;29;20112;-94
2023/09/12 07:36:24;;;;;;;848.40;756.20;;;19.40;99.90;;;;;;4871557;29;20552;-94
2023/09/12 07:39:21;;;;;;;625.10;568.78;;;19.50;99.90;;;;;;4863385;29;20432;-93
2023/09/12 07:41:58;;;;;;;637.83;580.22;;;19.60;99.90;;;;;;4863454;29;20045;-94
2023/09/12 08:28:15;;;;;;;;;;;;;;;;;;;;;
2023/09/12 08:43:55;;;;;;;654.28;588.10;;;20.20;99.90;;;;;;4923645;29;20055;-91
2023/09/12 08:46:41;;;;;;;;;;;;;;;;;;;;;
2023/09/12 09:56:31;;;;;;;;;;;;;;;;;;;;;
2023/09/12 10:25:16;;;;;;;755.17;680.58;;;22.70;99.90;;;;;;4921509;29;20075;-91
2023/09/12 10:36:57;;;;;;;817.40;734.00;;;22.90;99.90;;;;;;4853128;29;20061;-90
2023/09/12 11:06:58;;;;;;;829.53;741.35;;;22.80;99.90;;;;;;4904582;29;20104;-96
2023/09/12 12:00:55;;;;;;;735.55;660.80;;;24.60;99.90;;;;;;5334008;23;20081;31
2023/09/12 12:56:05;;;;;;;708.15;630.55;;;24.40;99.90;;;;;;5183719;23;20444;-93
2023/09/12 13:01:40;;;;;;;664.83;593.55;;;24.10;99.90;;;;;;4924504;29;20056;-93
2023/09/12 13:04:43;;;;;;;691.22;612.00;;;23.90;99.90;;;;;;4918426;29;20139;-95
2023/09/12 13:10:33;;;;;;;;;;;;;;;;;;;;;
2023/09/12 13:27:55;;;;;;;681.35;619.33;;;22.00;99.90;;;;;;4797402;29;20108;-91
2023/09/12 13:30:21;;;;;;;682.33;615.60;;;21.90;99.90;;;;;;4795351;29;20051;-91
2023/09/12 13:32:47;;;;;;;688.92;623.15;;;21.90;99.90;;;;;;4857792;29;20051;-93
2023/09/12 13:35:13;;;;;;;722.75;650.53;;;21.80;99.90;;;;;;4867956;29;20201;-94
2023/09/12 13:37:38;;;;;;;730.33;658.47;;;21.80;99.90;;;;;;4851904;29;20112;-96
2023/09/12 13:40:06;;;;;;;705.88;638.70;;;21.90;99.90;;;;;;4856109;29;20053;-93
2023/09/12 13:42:32;;;;;;;665.45;602.63;;;21.90;99.90;;;;;;4876132;29;20040;-95
2023/09/12 13:44:58;;;;;;;752.78;677.17;;;21.90;99.90;;;;;;4857879;29;20049;-94
2023/09/12 13:47:25;;;;;;;670.25;605.65;;;22.00;99.90;;;;;;4858958;29;20139;-95
2023/09/12 13:49:54;;;;;;;669.67;607.38;;;22.10;99.90;;;;;;4863320;29;20381;-92
2023/09/12 13:52:21;;;;;;;718.55;647.55;;;22.20;99.90;;;;;;4849721;29;20083;-95
2023/09/12 13:54:47;;;;;;;680.20;615.78;;;22.20;99.90;;;;;;4853578;29;20060;-94
2023/09/12 13:57:13;;;;;;;683.90;617.80;;;22.30;99.90;;;;;;4877162;29;20396;-93
2023/09/12 13:59:39;;;;;;;751.90;676.42;;;22.30;99.90;;;;;;4860244;29;20048;-88
2023/09/12 14:02:05;;;;;;;762.63;689.33;;;22.50;99.90;;;;;;4871197;29;20085;-87
2023/09/12 14:04:31;;;;;;;745.65;674.20;;;22.40;99.90;;;;;;4854979;29;20079;-87
2023/09/12 14:07:03;;;;;;;678.50;614.15;;;22.40;99.90;;;;;;4869798;29;20132;-88
2023/09/12 14:09:29;;;;;;;643.80;583.20;;;22.50;99.90;;;;;;4851496;29;20067;-87
2023/09/12 14:12:05;;;;;;;703.42;637.08;;;22.60;99.90;;;;;;4875017;29;20045;-88
2023/09/12 14:14:31;;;;;;;722.72;654.88;;;22.60;99.90;;;;;;4863292;29;20548;-89
2023/09/12 14:16:57;;;;;;;688.45;624.47;;;22.60;99.90;;;;;;4873349;29;20294;-86
2023/09/12 14:19:23;;;;;;;747.25;676.63;;;22.50;99.90;;;;;;4891553;29;20054;-87
2023/09/12 14:21:48;;;;;;;733.53;664.75;;;22.50;99.90;;;;;;4891421;29;20226;-87
2023/09/12 14:24:14;;;;;;;757.92;682.30;;;22.50;99.90;;;;;;4885105;29;20149;-89
2023/09/12 14:26:43;;;;;;;676.30;613.55;;;22.20;99.90;;;;;;4873364;29;20108;-91
2023/09/12 14:29:15;;;;;;;724.65;656.08;;;22.40;99.90;;;;;;4884881;29;20051;-90
2023/09/12 14:31:49;;;;;;;756.47;685.15;;;22.50;99.90;;;;;;4885604;29;20052;-88
2023/09/12 14:34:16;;;;;;;645.40;586.38;;;22.40;99.90;;;;;;4887027;29;20059;-88
2023/09/12 14:36:42;;;;;;;694.33;630.08;;;22.50;99.90;;;;;;4867726;29;20061;-87
2023/09/12 14:39:10;;;;;;;687.38;624.35;;;22.50;99.90;;;;;;4893514;29;20104;-91
2023/09/12 14:42:08;;;;;;;719.53;649.58;;;22.40;99.90;;;;;;4873769;29;20044;-91
2023/09/12 14:44:37;;;;;;;709.08;642.88;;;22.40;99.90;;;;;;4873555;29;20056;-88
2023/09/12 14:47:30;;;;;;;738.42;669.50;;;22.50;99.90;;;;;;4891233;29;20124;-88
2023/09/12 14:50:06;;;;;;;703.50;636.45;;;22.60;99.90;;;;;;4880596;29;20092;-89
2023/09/12 14:52:33;;;;;;;710.40;644.03;;;22.60;99.90;;;;;;4896870;29;20040;-89
2023/09/12 14:55:05;;;;;;;705.00;638.70;;;22.60;99.90;;;;;;4896056;29;20203;-91
2023/09/12 14:57:31;;;;;;;693.65;628.10;;;22.60;99.90;;;;;;4876496;29;20045;-87
2023/09/12 14:59:57;;;;;;;704.70;638.38;;;22.50;99.90;;;;;;4875354;29;20570;-88
2023/09/12 15:02:31;;;;;;;750.65;680.25;;;22.40;99.90;;;;;;4876169;29;20048;-89
2023/09/12 15:05:16;;;;;;;765.58;692.35;;;22.40;99.90;;;;;;4894339;29;20386;-86
2023/09/12 15:07:42;;;;;;;769.90;696.60;;;22.40;99.90;;;;;;4871622;29;20128;-86
2023/09/12 15:10:08;;;;;;;723.22;655.28;;;22.40;99.90;;;;;;4893765;29;20048;-85
2023/09/12 15:12:34;;;;;;;711.30;643.67;;;22.40;99.90;;;;;;4879244;29;20113;-85
2023/09/12 15:15:00;;;;;;;720.08;652.55;;;22.30;99.90;;;;;;4875676;29;20049;-88
2023/09/12 15:17:25;;;;;;;708.20;641.72;;;22.30;99.90;;;;;;4872594;29;20413;-86
2023/09/12 15:19:51;;;;;;;718.08;650.47;;;22.20;99.90;;;;;;4890994;29;20061;-87
2023/09/12 15:22:17;;;;;;;712.03;644.65;;;22.20;99.90;;;;;;4872310;29;20048;-87
2023/09/12 15:24:42;;;;;;;707.90;640.58;;;22.20;99.90;;;;;;4880720;29;20041;-86
2023/09/12 15:27:14;;;;;;;699.65;634.03;;;22.10;99.90;;;;;;4879162;29;20063;-95
2023/09/12 15:29:40;;;;;;;745.85;672.97;;;22.00;99.90;;;;;;4870217;29;20092;-95
2023/09/12 15:32:15;;;;;;;725.50;656.25;;;21.90;99.90;;;;;;4887226;29;20076;-95
2023/09/12 15:34:52;;;;;;;764.83;691.25;;;21.80;99.90;;;;;;4874517;29;20079;-95
2023/09/12 15:37:27;;;;;;;743.70;673.70;;;21.90;99.90;;;;;;4881700;29;20414;-94
2023/09/12 15:39:53;;;;;;;745.97;674.67;;;21.80;99.90;;;;;;4897495;29;20116;-96
2023/09/12 15:42:46;;;;;;;749.47;677.38;;;21.80;99.90;;;;;;4877609;29;20054;-96
2023/09/12 15:45:12;;;;;;;682.78;617.83;;;21.90;99.90;;;;;;4875897;29;20067;-95
2023/09/12 15:47:39;;;;;;;729.63;656.33;;;21.90;99.90;;;;;;4892209;29;20053;-94
2023/09/12 15:50:05;;;;;;;761.92;688.70;;;22.00;99.90;;;;;;4875606;29;20147;-95
2023/09/12 15:52:37;;;;;;;745.83;674.05;;;22.10;99.90;;;;;;4872522;29;20055;-94
2023/09/12 15:55:24;;;;;;;740.10;668.78;;;22.10;99.90;;;;;;4876681;29;20088;-96
2023/09/12 15:57:52;;;;;;;742.05;671.97;;;22.10;99.90;;;;;;4888735;29;20120;-95
2023/09/12 16:00:18;;;;;;;724.20;655.92;;;22.20;99.90;;;;;;4888556;29;20048;-94
2023/09/12 16:02:44;;;;;;;736.35;667.38;;;22.10;99.90;;;;;;4879846;29;20661;-93
2023/09/12 16:05:10;;;;;;;714.67;647.63;;;22.00;99.90;;;;;;4891463;29;20041;-93
2023/09/12 16:07:36;;;;;;;754.15;679.08;;;21.90;99.90;;;;;;4885397;29;20061;-96
2023/09/12 16:10:07;;;;;;;660.88;599.60;;;21.80;99.90;;;;;;4876123;29;20064;-94
2023/09/12 16:12:33;;;;;;;732.53;661.90;;;21.70;99.90;;;;;;4874086;29;20044;-93
2023/09/12 16:14:59;;;;;;;753.80;680.22;;;21.60;99.90;;;;;;4867109;29;20080;-93
2023/09/12 16:17:24;;;;;;;663.40;602.25;;;21.50;99.90;;;;;;4862316;29;20057;-95
2023/09/12 16:19:54;;;;;;;730.85;663.35;;;21.40;99.90;;;;;;4873561;29;20071;-92
2023/09/12 16:22:20;;;;;;;742.90;673.25;;;21.30;99.90;;;;;;4868708;29;20049;-92
2023/09/12 16:24:45;;;;;;;741.83;672.53;;;21.20;99.90;;;;;;4877685;29;20123;-93
2023/09/12 16:27:12;;;;;;;678.50;614.70;;;21.20;99.90;;;;;;4895957;29;20477;-92
2023/09/12 16:29:53;;;;;;;708.13;640.45;;;21.20;99.90;;;;;;4883737;29;20052;-88
2023/09/12 16:32:22;;;;;;;759.05;686.45;;;21.30;99.90;;;;;;4867334;29;20127;-87
2023/09/12 16:34:47;;;;;;;678.50;614.53;;;21.40;99.90;;;;;;4881884;29;20040;-86
2023/09/12 16:37:15;;;;;;;699.22;633.85;;;21.40;99.90;;;;;;4888690;29;20379;-88
2023/09/12 16:39:42;;;;;;;721.50;652.63;;;21.40;99.90;;;;;;4873234;29;20056;-87
2023/09/12 16:42:08;;;;;;;753.75;679.28;;;21.40;99.90;;;;;;4861770;29;20197;-86
2023/09/12 16:44:34;;;;;;;723.63;653.08;;;21.30;99.90;;;;;;4873057;29;20068;-88
2023/09/12 16:47:00;;;;;;;750.30;679.67;;;21.20;99.90;;;;;;4868350;29;20045;-88
2023/09/12 16:49:25;;;;;;;749.95;679.30;;;21.00;99.90;;;;;;4877102;29;20064;-86
2023/09/12 16:51:51;;;;;;;756.58;684.70;;;21.00;99.90;;;;;;4876629;29;20044;-87
2023/09/12 16:54:17;;;;;;;746.70;675.78;;;20.90;99.90;;;;;;4877894;29;20036;-86
2023/09/12 16:56:43;;;;;;;753.63;682.90;;;20.90;99.90;;;;;;4890531;29;20032;-88
2023/09/12 16:59:09;;;;;;;715.35;647.63;;;20.90;99.90;;;;;;4873096;29;20566;-86
2023/09/12 17:01:34;;;;;;;754.22;683.05;;;20.80;99.90;;;;;;4877680;29;20068;-87
2023/09/12 17:04:03;;;;;;;701.88;636.80;;;20.80;99.90;;;;;;4889594;29;20049;-90
2023/09/12 17:06:44;;;;;;;;;;;;;;;;;;;;;
2023/09/12 17:09:13;;;;;;;693.10;628.08;;;20.80;99.90;;;;;;4881506;29;20107;-92
2023/09/12 17:12:04;;;;;;;710.85;643.72;;;20.70;99.90;;;;;;4877224;29;20450;-94
2023/09/12 17:14:30;;;;;;;719.65;650.08;;;20.60;99.90;;;;;;4860882;29;20566;-88
2023/09/12 17:17:11;;;;;;;726.90;656.75;;;20.50;99.90;;;;;;4874816;29;20100;-93
2023/09/12 17:19:53;;;;;;;675.15;612.65;;;20.50;99.90;;;;;;4848209;29;20057;-92
2023/09/12 17:22:26;;;;;;;718.05;651.20;;;20.40;99.90;;;;;;4837977;29;20099;-92
2023/09/12 17:25:00;;;;;;;755.20;683.85;;;20.50;99.90;;;;;;4827049;29;20323;-94
2023/09/12 17:28:05;;;;;;;684.22;620.05;;;20.30;99.90;;;;;;4846006;29;20050;-93
2023/09/12 17:30:47;;;;;;;712.65;647.17;;;20.10;99.90;;;;;;4840797;29;20065;-94
2023/09/12 17:33:19;;;;;;;781.50;705.13;;;20.10;99.90;;;;;;4830775;29;20114;-92
2023/09/12 17:36:04;;;;;;;767.97;694.17;;;20.10;99.90;;;;;;4841030;29;20117;-92
2023/09/12 17:38:56;;;;;;;798.92;720.20;;;20.00;99.90;;;;;;4841882;29;20054;-94
2023/09/12 17:41:54;;;;;;;;;;;;;;;;;;;;;
2023/09/12 17:44:32;;;;;;;701.55;632.92;;;20.00;99.90;;;;;;4837553;29;20062;-94
2023/09/12 17:47:19;;;;;;;739.15;665.25;;;19.90;99.90;;;;;;4834272;29;20054;-92
2023/09/12 17:50:17;;;;;;;796.45;713.65;;;19.90;99.90;;;;;;4806078;29;20097;-94
2023/09/12 17:55:55;;;;;;;786.80;703.65;;;19.80;99.90;;;;;;4839222;29;20060;-93
2023/09/12 17:58:39;;;;;;;743.25;667.10;;;19.90;99.90;;;;;;4844046;29;20058;-95
2023/09/12 18:01:15;;;;;;;810.03;724.75;;;19.80;99.90;;;;;;4834909;29;20041;-94
2023/09/12 18:06:43;;;;;;;735.58;661.72;;;19.80;99.90;;;;;;4828457;29;20141;-92
2023/09/12 18:09:09;;;;;;;748.28;672.85;;;19.80;99.90;;;;;;4836503;29;20049;-91
2023/09/12 18:11:55;;;;;;;715.80;642.45;;;19.70;99.90;;;;;;4850129;29;20054;-93
2023/09/12 18:14:47;;;;;;;761.72;683.10;;;19.70;99.90;;;;;;4824021;29;20050;-94
2023/09/12 18:17:48;;;;;;;737.13;660.78;;;19.70;99.90;;;;;;4816318;29;20507;-94
2023/09/12 18:20:48;;;;;;;770.30;689.85;;;19.60;99.90;;;;;;4816761;29;20516;-93
2023/09/12 18:23:46;;;;;;;753.45;674.10;;;19.60;99.90;;;;;;4824963;29;20504;-94
2023/09/12 18:30:32;;;;;;;736.15;658.45;;;19.60;99.90;;;;;;4817171;29;20062;-94
2023/09/12 18:36:54;;;;;;;760.08;679.63;;;19.60;99.90;;;;;;4800938;29;20141;-94
2023/09/12 18:42:27;;;;;;;772.97;691.80;;;19.50;99.90;;;;;;4786955;29;20063;-93
2023/09/12 18:45:20;;;;;;;628.33;567.72;;;19.40;99.90;;;;;;4833669;29;20049;-93
2023/09/12 18:47:52;;;;;;;662.13;596.65;;;19.40;99.90;;;;;;4820778;29;20049;-94
2023/09/12 18:50:27;;;;;;;684.40;615.50;;;19.50;99.90;;;;;;4838105;29;20054;-93
2023/09/12 18:53:15;;;;;;;;;;;;;;;;;;;;;
2023/09/12 18:55:53;;;;;;;647.63;583.57;;;19.40;99.90;;;;;;4821550;29;20053;-94
2023/09/12 18:58:22;;;;;;;600.15;541.58;;;19.50;99.90;;;;;;4837868;29;20279;-92
2023/09/12 19:03:56;;;;;;;611.97;550.42;;;19.30;99.90;;;;;;4824112;29;20122;-94
2023/09/12 19:10:13;;;;;;;638.30;573.85;;;19.30;99.90;;;;;;4842464;29;20110;-93
2023/09/12 19:19:16;;;;;;;647.23;582.37;;;19.20;99.90;;;;;;4827748;29;20050;-94
2023/09/12 19:29:03;;;;;;;640.42;577.67;;;19.10;99.90;;;;;;4817476;29;20054;-93
2023/09/12 19:35:06;;;;;;;599.60;543.25;;;19.10;99.90;;;;;;4824173;29;20106;-94
2023/09/12 19:37:47;;;;;;;558.63;506.70;;;19.10;99.90;;;;;;4791459;29;20061;-93
2023/09/12 19:40:54;;;;;;;;;;;;;;;;;;;;;
2023/09/12 19:43:49;;;;;;;659.15;592.78;;;19.10;99.90;;;;;;4809199;29;20050;-93
2023/09/12 19:46:30;;;;;;;781.25;696.25;;;19.10;99.90;;;;;;4815103;29;20440;-94
2023/09/12 19:55:14;;;;;;;681.50;608.72;;;19.10;99.90;;;;;;4816334;29;20114;-94
2023/09/12 19:58:18;;;;;;;;;;;;;;;;;;;;;
2023/09/12 20:01:26;;;;;;;712.60;638.30;;;19.00;99.90;;;;;;4788667;29;20116;-94
2023/09/12 20:04:15;;;;;;;1015.38;805.88;;;19.00;99.90;;;;;;4768986;29;20051;-94
2023/09/12 20:10:47;;;;;;;927.63;770.15;;;18.90;99.90;;;;;;4857007;23;20879;-89
2023/09/12 20:13:16;;;;;;;862.20;734.80;;;18.90;99.90;;;;;;4912159;29;20043;-87
2023/09/12 20:15:42;;;;;;;1006.38;806.97;;;18.90;99.90;;;;;;4915048;29;20047;-87
2023/09/12 20:18:12;;;;;;;940.47;780.42;;;18.90;99.90;;;;;;4917953;29;20042;-87
2023/09/12 20:20:44;;;;;;;893.17;757.10;;;18.90;99.90;;;;;;4915926;28;20134;-86
2023/09/12 20:23:35;;;;;;;884.47;757.53;;;18.80;99.90;;;;;;4925287;29;20051;-87
2023/09/12 20:26:28;;;;;;;839.55;731.63;;;18.90;99.90;;;;;;4917434;29;20527;-87
2023/09/12 20:28:56;;;;;;;804.97;708.70;;;18.70;99.90;;;;;;4920795;28;20051;-87
2023/09/12 20:31:22;;;;;;;772.88;688.83;;;18.70;99.90;;;;;;4924300;29;20054;-87
2023/09/12 20:33:48;;;;;;;785.97;699.88;;;18.70;99.90;;;;;;4904659;29;20130;-86
2023/09/12 20:36:14;;;;;;;890.45;749.75;;;18.60;99.90;;;;;;4922082;29;20055;-86
2023/09/12 20:38:49;;;;;;;767.72;686.00;;;18.50;99.90;;;;;;4928096;29;20035;-87
2023/09/12 20:41:24;;;;;;;834.40;718.38;;;18.70;99.90;;;;;;4921384;29;20074;-86
2023/09/12 20:43:59;;;;;;;1006.45;801.60;;;18.60;99.90;;;;;;4912557;29;20109;-87
2023/09/12 20:46:27;;;;;;;907.40;758.65;;;18.60;99.90;;;;;;4917342;29;20043;-86
2023/09/12 20:48:52;;;;;;;960.28;784.33;;;18.50;99.90;;;;;;4932570;29;20062;-87
2023/09/12 20:51:18;;;;;;;966.50;787.15;;;18.50;99.90;;;;;;4930004;28;20495;-87
2023/09/12 20:53:58;;;;;;;819.33;712.20;;;18.50;99.90;;;;;;4917546;29;20394;-87
2023/09/12 20:56:24;;;;;;;914.03;765.97;;;18.40;99.90;;;;;;4917766;28;20097;-87
2023/09/12 20:58:50;;;;;;;937.97;764.75;;;18.40;99.90;;;;;;4934055;29;20090;-87
2023/09/12 21:01:15;;;;;;;868.65;728.40;;;18.40;99.90;;;;;;4915104;28;20039;-87
2023/09/12 21:03:42;;;;;;;763.47;677.45;;;18.40;99.90;;;;;;4917688;29;20039;-87
2023/09/12 21:06:10;;;;;;;950.20;783.38;;;18.40;99.90;;;;;;4918652;29;20043;-87
2023/09/12 21:08:36;;;;;;;930.50;775.92;;;18.40;99.90;;;;;;4933556;29;20044;-87
2023/09/12 21:11:02;;;;;;;887.83;759.67;;;18.40;99.90;;;;;;4914139;29;20043;-87
2023/09/12 21:13:28;;;;;;;831.95;714.78;;;18.30;99.90;;;;;;4926695;29;20520;-87
2023/09/12 21:15:53;;;;;;;914.75;761.10;;;18.30;99.90;;;;;;4920227;29;20573;-87
2023/09/12 21:18:19;;;;;;;819.90;704.75;;;18.30;99.90;;;;;;4913784;29;20040;-87
2023/09/12 21:20:51;;;;;;;713.20;639.13;;;18.30;99.90;;;;;;4930462;29;20044;-87
2023/09/12 21:23:16;;;;;;;792.20;687.63;;;18.30;99.90;;;;;;4913302;29;20455;-87
2023/09/12 21:25:42;;;;;;;937.20;779.15;;;18.30;99.90;;;;;;4914048;29;20488;-87
2023/09/12 21:28:08;;;;;;;775.95;688.58;;;18.30;99.90;;;;;;4914698;29;20055;-87
2023/09/12 21:30:37;;;;;;;843.78;723.15;;;18.30;99.90;;;;;;4913480;29;20051;-87
2023/09/12 21:33:04;;;;;;;935.42;770.80;;;18.20;99.90;;;;;;4914168;29;20130;-87
2023/09/12 21:35:33;;;;;;;740.55;660.60;;;18.30;99.90;;;;;;4929688;29;20048;-87
2023/09/12 21:37:58;;;;;;;878.50;751.03;;;18.30;99.90;;;;;;4913034;29;20062;-87
2023/09/12 21:40:24;;;;;;;804.72;714.92;;;18.40;99.90;;;;;;4929202;29;20396;-87
2023/09/12 21:42:54;;;;;;;894.58;749.78;;;18.40;99.90;;;;;;4913289;29;20082;-87
2023/09/12 21:45:19;;;;;;;776.30;688.15;;;18.40;99.90;;;;;;4913696;29;20393;-87
2023/09/12 21:47:45;;;;;;;912.72;752.10;;;18.40;99.90;;;;;;4912602;29;20050;-86
2023/09/12 21:50:12;;;;;;;886.45;750.22;;;18.40;99.90;;;;;;4913218;29;20048;-86
2023/09/12 21:52:38;;;;;;;885.22;748.97;;;18.40;99.90;;;;;;4928484;29;20420;-87
2023/09/12 21:55:04;;;;;;;908.80;753.22;;;18.40;99.90;;;;;;4914153;29;20051;-87
2023/09/12 21:57:31;;;;;;;853.45;734.33;;;18.40;99.90;;;;;;4909152;29;20133;-86
2023/09/12 21:59:57;;;;;;;791.85;700.42;;;18.40;99.90;;;;;;4923017;29;20083;-87
2023/09/12 22:02:23;;;;;;;940.90;769.75;;;18.50;99.90;;;;;;4913736;29;20107;-87
2023/09/12 22:04:51;;;;;;;895.08;760.40;;;18.60;99.90;;;;;;4913526;29;20356;-87
2023/09/12 22:07:17;;;;;;;793.75;705.17;;;18.50;99.90;;;;;;4929376;29;20126;-87
2023/09/12 22:09:55;;;;;;;822.05;715.03;;;18.50;99.90;;;;;;4900792;29;20111;-87
2023/09/12 22:12:20;;;;;;;752.50;671.53;;;18.50;99.90;;;;;;4894343;29;20106;-88
2023/09/12 22:14:53;;;;;;;826.92;717.13;;;18.50;99.90;;;;;;4912409;29;20055;-87
2023/09/12 22:17:18;;;;;;;804.75;695.03;;;18.50;99.90;;;;;;4913016;29;20492;-87
2023/09/12 22:19:44;;;;;;;937.30;772.47;;;18.50;99.90;;;;;;4928224;29;20507;-87
2023/09/12 22:22:10;;;;;;;805.97;717.20;;;18.50;99.90;;;;;;4929062;29;20071;-86
2023/09/12 22:24:35;;;;;;;935.10;767.28;;;18.50;99.90;;;;;;4913205;29;20052;-86
2023/09/12 22:27:01;;;;;;;926.13;767.38;;;18.50;99.90;;;;;;4928092;29;20491;-87
2023/09/12 22:29:27;;;;;;;776.90;686.13;;;18.50;99.90;;;;;;4912853;29;20130;-86
2023/09/12 22:32:02;;;;;;;741.67;661.33;;;18.50;99.90;;;;;;4914634;29;20061;-87
2023/09/12 22:34:27;;;;;;;822.70;709.97;;;18.50;99.90;;;;;;4912173;29;20490;-86
2023/09/12 22:36:53;;;;;;;853.95;732.47;;;18.50;99.90;;;;;;4912731;29;20081;-86
2023/09/12 22:39:19;;;;;;;810.85;718.45;;;18.50;99.90;;;;;;4928384;29;20051;-87
2023/09/12 22:41:55;;;;;;;907.13;760.78;;;18.50;99.90;;;;;;4929011;29;20047;-87
2023/09/12 22:44:21;;;;;;;951.22;781.20;;;18.40;99.90;;;;;;4913214;29;20476;-87
2023/09/12 22:46:55;;;;;;;832.92;722.22;;;18.40;99.90;;;;;;4912056;29;20054;-87
2023/09/12 22:49:21;;;;;;;851.85;727.75;;;18.40;99.90;;;;;;4912925;29;20051;-87
2023/09/12 22:51:47;;;;;;;828.58;718.75;;;18.40;99.90;;;;;;4912879;29;20352;-87
2023/09/12 22:54:12;;;;;;;909.60;764.60;;;18.40;99.90;;;;;;4927925;29;20052;-87
2023/09/12 22:56:38;;;;;;;748.67;667.70;;;18.40;99.90;;;;;;4913070;29;20070;-87
2023/09/12 22:59:04;;;;;;;811.10;708.38;;;18.40;99.90;;;;;;4910981;29;20357;-87
2023/09/12 23:01:31;;;;;;;880.75;752.13;;;18.40;99.90;;;;;;4905138;29;20559;-86
2023/09/12 23:03:57;;;;;;;874.92;738.45;;;18.30;99.90;;;;;;4904306;29;20047;-87
2023/09/12 23:06:23;;;;;;;965.28;790.80;;;18.30;99.90;;;;;;4916389;29;20484;-87
2023/09/12 23:08:58;;;;;;;831.92;719.75;;;18.30;99.90;;;;;;4915663;29;20074;-86
2023/09/12 23:11:24;;;;;;;817.97;713.75;;;18.30;99.90;;;;;;4915477;29;20056;-86
2023/09/12 23:13:49;;;;;;;841.60;720.55;;;18.30;99.90;;;;;;4925700;29;20052;-87
2023/09/12 23:16:17;;;;;;;908.67;756.00;;;18.30;99.90;;;;;;4925718;29;20120;-87
2023/09/12 23:18:52;;;;;;;852.20;727.72;;;18.20;99.90;;;;;;4916282;29;20051;-87
2023/09/12 23:21:18;;;;;;;806.65;703.05;;;18.20;99.90;;;;;;4931742;29;20499;-87
2023/09/12 23:23:43;;;;;;;885.83;753.22;;;18.20;99.90;;;;;;4915837;29;20044;-86
2023/09/12 23:26:09;;;;;;;937.80;774.60;;;18.20;99.90;;;;;;4915927;29;20056;-87
2023/09/12 23:28:38;;;;;;;880.00;749.72;;;18.20;99.90;;;;;;4915343;29;20215;-86
2023/09/12 23:31:03;;;;;;;832.05;717.75;;;18.10;99.90;;;;;;4916469;29;20047;-87
2023/09/12 23:33:35;;;;;;;809.80;706.42;;;18.10;99.90;;;;;;4915524;29;20048;-86
2023/09/12 23:36:01;;;;;;;959.05;786.08;;;18.10;99.90;;;;;;4915048;29;20048;-86
2023/09/12 23:38:26;;;;;;;851.20;738.85;;;18.10;99.90;;;;;;4915753;29;20098;-87
2023/09/12 23:40:52;;;;;;;869.58;746.95;;;18.00;99.90;;;;;;4903402;29;20047;-86
2023/09/12 23:43:18;;;;;;;904.00;763.28;;;18.00;99.90;;;;;;4930938;29;20055;-87
2023/09/12 23:45:43;;;;;;;856.38;734.40;;;18.00;99.90;;;;;;4915251;29;20130;-87
2023/09/12 23:48:10;;;;;;;893.67;761.63;;;18.00;99.90;;;;;;4915906;29;20047;-86
2023/09/12 23:50:35;;;;;;;869.70;748.67;;;17.90;99.90;;;;;;4930072;29;20058;-86
2023/09/12 23:53:11;;;;;;;963.65;794.08;;;17.90;99.90;;;;;;4917089;29;20452;-87
2023/09/12 23:55:37;;;;;;;868.28;741.70;;;17.90;99.90;;;;;;4914922;29;20051;-86
2023/09/12 23:58:03;;;;;;;847.90;730.55;;;17.90;99.90;;;;;;4915003;29;20040;-87
